sensor_id;sensor_type;location;lat;lon;timestamp;pressure;altitude;pressure_sealevel;temperature;humidity
51926;BME280;37952;51.938;15.480;2022-11-20T00:00:50;99343.98;;;-1.77;74.50
51926;BME280;37952;51.938;15.480;2022-11-20T00:03:55;99341.39;;;-1.76;74.59
51926;BME280;37952;51.938;15.480;2022-11-20T00:06:57;99337.38;;;-1.73;74.33
51926;BME280;37952;51.938;15.480;2022-11-20T00:09:58;99333.34;;;-1.70;74.75
51926;BME280;37952;51.938;15.480;2022-11-20T00:13:00;99333.41;;;-1.65;74.33
51926;BME280;37952;51.938;15.480;2022-11-20T00:16:04;99332.46;;;-1.59;73.51
51926;BME280;37952;51.938;15.480;2022-11-20T00:19:06;99332.42;;;-1.57;74.17
51926;BME280;37952;51.938;15.480;2022-11-20T00:22:07;99334.56;;;-1.61;74.41
51926;BME280;37952;51.938;15.480;2022-11-20T00:25:09;99333.66;;;-1.58;73.93
51926;BME280;37952;51.938;15.480;2022-11-20T00:28:10;99341.89;;;-1.55;73.21
51926;BME280;37952;51.938;15.480;2022-11-20T00:31:14;99337.96;;;-1.57;73.95
51926;BME280;37952;51.938;15.480;2022-11-20T00:34:16;99338.36;;;-1.60;74.30
51926;BME280;37952;51.938;15.480;2022-11-20T00:37:17;99334.16;;;-1.57;73.72
51926;BME280;37952;51.938;15.480;2022-11-20T00:40:19;99334.27;;;-1.64;74.16
51926;BME280;37952;51.938;15.480;2022-11-20T00:43:22;99337.42;;;-1.66;74.16
51926;BME280;37952;51.938;15.480;2022-11-20T00:46:26;99339.72;;;-1.69;74.31
51926;BME280;37952;51.938;15.480;2022-11-20T00:49:28;99344.25;;;-1.72;73.96
51926;BME280;37952;51.938;15.480;2022-11-20T00:52:29;99341.33;;;-1.72;74.49
51926;BME280;37952;51.938;15.480;2022-11-20T00:55:31;99340.77;;;-1.70;74.02
51926;BME280;37952;51.938;15.480;2022-11-20T00:58:34;99340.54;;;-1.66;73.86
51926;BME280;37952;51.938;15.480;2022-11-20T01:01:36;99349.76;;;-1.70;74.28
51926;BME280;37952;51.938;15.480;2022-11-20T01:04:38;99344.02;;;-1.69;73.80
51926;BME280;37952;51.938;15.480;2022-11-20T01:07:42;99349.07;;;-1.70;74.41
51926;BME280;37952;51.938;15.480;2022-11-20T01:10:43;99349.77;;;-1.71;73.97
51926;BME280;37952;51.938;15.480;2022-11-20T01:13:46;99350.39;;;-1.66;74.03
51926;BME280;37952;51.938;15.480;2022-11-20T01:16:49;99352.79;;;-1.65;73.77
51926;BME280;37952;51.938;15.480;2022-11-20T01:19:52;99351.91;;;-1.65;73.89
51926;BME280;37952;51.938;15.480;2022-11-20T01:22:53;99347.42;;;-1.66;73.91
51926;BME280;37952;51.938;15.480;2022-11-20T01:25:55;99347.45;;;-1.56;73.61
51926;BME280;37952;51.938;15.480;2022-11-20T01:28:58;99347.84;;;-1.59;74.43
51926;BME280;37952;51.938;15.480;2022-11-20T01:32:01;99347.91;;;-1.53;73.55
51926;BME280;37952;51.938;15.480;2022-11-20T01:35:04;99347.26;;;-1.55;73.91
51926;BME280;37952;51.938;15.480;2022-11-20T01:38:06;99351.39;;;-1.55;73.76
51926;BME280;37952;51.938;15.480;2022-11-20T01:41:08;99350.98;;;-1.62;74.09
51926;BME280;37952;51.938;15.480;2022-11-20T01:44:12;99345.88;;;-1.55;73.76
51926;BME280;37952;51.938;15.480;2022-11-20T01:47:32;99343.39;;;-1.51;73.75
51926;BME280;37952;51.938;15.480;2022-11-20T01:50:36;99343.42;;;-1.54;73.73
51926;BME280;37952;51.938;15.480;2022-11-20T01:53:38;99344.48;;;-1.54;73.42
51926;BME280;37952;51.938;15.480;2022-11-20T01:56:43;99345.29;;;-1.52;73.31
51926;BME280;37952;51.938;15.480;2022-11-20T02:00:12;99341.89;;;-1.45;73.14
51926;BME280;37952;51.938;15.480;2022-11-20T02:03:16;99339.12;;;-1.44;73.14
51926;BME280;37952;51.938;15.480;2022-11-20T02:06:26;99334.63;;;-1.45;72.80
51926;BME280;37952;51.938;15.480;2022-11-20T02:09:29;99332.77;;;-1.38;72.79
51926;BME280;37952;51.938;15.480;2022-11-20T02:12:30;99334.45;;;-1.36;72.15
51926;BME280;37952;51.938;15.480;2022-11-20T02:15:51;99330.17;;;-1.38;72.14
51926;BME280;37952;51.938;15.480;2022-11-20T02:18:54;99326.55;;;-1.38;71.84
51926;BME280;37952;51.938;15.480;2022-11-20T02:22:05;99328.88;;;-1.42;71.82
51926;BME280;37952;51.938;15.480;2022-11-20T02:25:10;99325.85;;;-1.38;71.63
51926;BME280;37952;51.938;15.480;2022-11-20T02:28:11;99317.84;;;-1.44;71.23
51926;BME280;37952;51.938;15.480;2022-11-20T02:31:13;99318.82;;;-1.41;71.03
51926;BME280;37952;51.938;15.480;2022-11-20T02:34:14;99316.45;;;-1.43;71.21
51926;BME280;37952;51.938;15.480;2022-11-20T02:37:16;99315.64;;;-1.47;70.73
51926;BME280;37952;51.938;15.480;2022-11-20T02:40:19;99316.52;;;-1.57;70.74
51926;BME280;37952;51.938;15.480;2022-11-20T02:43:20;99314.28;;;-1.57;70.53
51926;BME280;37952;51.938;15.480;2022-11-20T02:46:22;99310.70;;;-1.60;70.25
51926;BME280;37952;51.938;15.480;2022-11-20T02:49:24;99306.02;;;-1.59;70.36
51926;BME280;37952;51.938;15.480;2022-11-20T02:52:26;99309.39;;;-1.64;70.26
51926;BME280;37952;51.938;15.480;2022-11-20T02:55:28;99306.27;;;-1.63;70.23
51926;BME280;37952;51.938;15.480;2022-11-20T02:58:29;99308.81;;;-1.71;70.34
51926;BME280;37952;51.938;15.480;2022-11-20T03:01:30;99308.05;;;-1.77;70.55
51926;BME280;37952;51.938;15.480;2022-11-20T03:04:32;99303.85;;;-1.73;70.37
51926;BME280;37952;51.938;15.480;2022-11-20T03:07:33;99298.21;;;-1.77;70.46
51926;BME280;37952;51.938;15.480;2022-11-20T03:10:35;99302.84;;;-1.75;70.73
51926;BME280;37952;51.938;15.480;2022-11-20T03:13:36;99298.81;;;-1.72;70.32
51926;BME280;37952;51.938;15.480;2022-11-20T03:16:38;99300.98;;;-1.77;70.40
51926;BME280;37952;51.938;15.480;2022-11-20T03:19:40;99301.61;;;-1.74;70.53
51926;BME280;37952;51.938;15.480;2022-11-20T03:22:41;99297.02;;;-1.68;70.19
51926;BME280;37952;51.938;15.480;2022-11-20T03:25:42;99292.70;;;-1.68;70.33
51926;BME280;37952;51.938;15.480;2022-11-20T03:28:49;99289.30;;;-1.61;70.34
51926;BME280;37952;51.938;15.480;2022-11-20T03:31:51;99284.73;;;-1.57;70.03
51926;BME280;37952;51.938;15.480;2022-11-20T03:34:53;99282.52;;;-1.59;69.83
51926;BME280;37952;51.938;15.480;2022-11-20T03:37:54;99283.56;;;-1.59;69.92
51926;BME280;37952;51.938;15.480;2022-11-20T03:41:08;99279.98;;;-1.62;69.62
51926;BME280;37952;51.938;15.480;2022-11-20T03:44:11;99279.38;;;-1.66;69.44
51926;BME280;37952;51.938;15.480;2022-11-20T03:47:13;99278.84;;;-1.66;69.42
51926;BME280;37952;51.938;15.480;2022-11-20T03:50:14;99280.40;;;-1.67;69.27
51926;BME280;37952;51.938;15.480;2022-11-20T03:53:16;99277.45;;;-1.66;69.35
51926;BME280;37952;51.938;15.480;2022-11-20T03:56:20;99276.07;;;-1.66;69.34
51926;BME280;37952;51.938;15.480;2022-11-20T03:59:24;99275.69;;;-1.73;68.78
51926;BME280;37952;51.938;15.480;2022-11-20T04:02:25;99279.35;;;-1.75;69.28
51926;BME280;37952;51.938;15.480;2022-11-20T04:05:27;99280.00;;;-1.82;68.89
51926;BME280;37952;51.938;15.480;2022-11-20T04:08:30;99275.29;;;-1.80;69.43
51926;BME280;37952;51.938;15.480;2022-11-20T04:11:34;99275.77;;;-1.77;69.22
51926;BME280;37952;51.938;15.480;2022-11-20T04:14:36;99277.30;;;-1.76;69.17
51926;BME280;37952;51.938;15.480;2022-11-20T04:17:37;99275.90;;;-1.85;69.23
51926;BME280;37952;51.938;15.480;2022-11-20T04:20:39;99279.39;;;-1.88;69.13
51926;BME280;37952;51.938;15.480;2022-11-20T04:23:42;99277.88;;;-1.90;69.51
51926;BME280;37952;51.938;15.480;2022-11-20T04:26:44;99275.60;;;-1.88;69.60
51926;BME280;37952;51.938;15.480;2022-11-20T04:29:45;99275.86;;;-1.94;69.33
51926;BME280;37952;51.938;15.480;2022-11-20T04:32:47;99269.89;;;-1.97;69.63
51926;BME280;37952;51.938;15.480;2022-11-20T04:35:48;99271.77;;;-1.96;69.45
51926;BME280;37952;51.938;15.480;2022-11-20T04:38:55;99272.27;;;-1.96;69.63
51926;BME280;37952;51.938;15.480;2022-11-20T04:41:58;99273.84;;;-1.96;69.61
51926;BME280;37952;51.938;15.480;2022-11-20T04:45:19;99272.00;;;-2.00;69.69
51926;BME280;37952;51.938;15.480;2022-11-20T04:48:20;99274.00;;;-1.96;69.77
51926;BME280;37952;51.938;15.480;2022-11-20T04:51:22;99272.59;;;-1.94;69.59
51926;BME280;37952;51.938;15.480;2022-11-20T04:54:24;99278.71;;;-1.98;69.40
51926;BME280;37952;51.938;15.480;2022-11-20T04:57:26;99280.12;;;-2.11;69.78
51926;BME280;37952;51.938;15.480;2022-11-20T05:00:27;99287.89;;;-2.11;69.53
51926;BME280;37952;51.938;15.480;2022-11-20T05:03:29;99292.64;;;-2.15;69.53
51926;BME280;37952;51.938;15.480;2022-11-20T05:06:31;99284.48;;;-2.24;69.77
51926;BME280;37952;51.938;15.480;2022-11-20T05:09:33;99289.98;;;-2.33;69.80
51926;BME280;37952;51.938;15.480;2022-11-20T05:12:34;99284.68;;;-2.26;69.88
51926;BME280;37952;51.938;15.480;2022-11-20T05:15:36;99280.65;;;-2.22;69.71
51926;BME280;37952;51.938;15.480;2022-11-20T05:18:38;99281.33;;;-2.21;69.68
51926;BME280;37952;51.938;15.480;2022-11-20T05:21:40;99278.23;;;-2.22;69.37
51926;BME280;37952;51.938;15.480;2022-11-20T05:24:42;99275.97;;;-2.20;69.55
51926;BME280;37952;51.938;15.480;2022-11-20T05:27:45;99275.62;;;-2.20;69.20
51926;BME280;37952;51.938;15.480;2022-11-20T05:30:50;99275.77;;;-2.19;69.36
51926;BME280;37952;51.938;15.480;2022-11-20T05:33:52;99276.34;;;-2.23;69.24
51926;BME280;37952;51.938;15.480;2022-11-20T05:36:53;99273.81;;;-2.26;69.06
51926;BME280;37952;51.938;15.480;2022-11-20T05:39:55;99273.91;;;-2.33;69.13
51926;BME280;37952;51.938;15.480;2022-11-20T05:42:56;99271.66;;;-2.43;68.84
51926;BME280;37952;51.938;15.480;2022-11-20T05:45:58;99267.88;;;-2.44;68.97
51926;BME280;37952;51.938;15.480;2022-11-20T05:49:00;99266.27;;;-2.40;69.35
51926;BME280;37952;51.938;15.480;2022-11-20T05:52:02;99273.80;;;-2.48;69.09
51926;BME280;37952;51.938;15.480;2022-11-20T05:55:04;99271.85;;;-2.55;69.14
51926;BME280;37952;51.938;15.480;2022-11-20T05:58:05;99270.84;;;-2.57;69.17
51926;BME280;37952;51.938;15.480;2022-11-20T06:01:10;99271.52;;;-2.57;69.52
51926;BME280;37952;51.938;15.480;2022-11-20T06:04:12;99273.88;;;-2.52;69.32
51926;BME280;37952;51.938;15.480;2022-11-20T06:07:13;99273.46;;;-2.49;69.15
51926;BME280;37952;51.938;15.480;2022-11-20T06:10:15;99271.23;;;-2.49;69.01
51926;BME280;37952;51.938;15.480;2022-11-20T06:13:17;99272.02;;;-2.55;69.06
51926;BME280;37952;51.938;15.480;2022-11-20T06:16:43;99276.78;;;-2.64;69.45
51926;BME280;37952;51.938;15.480;2022-11-20T06:19:45;99281.38;;;-2.70;69.23
51926;BME280;37952;51.938;15.480;2022-11-20T06:22:47;99280.80;;;-2.66;69.30
51926;BME280;37952;51.938;15.480;2022-11-20T06:25:48;99277.52;;;-2.66;69.43
51926;BME280;37952;51.938;15.480;2022-11-20T06:29:17;99273.48;;;-2.61;69.40
51926;BME280;37952;51.938;15.480;2022-11-20T06:32:19;99277.84;;;-2.52;68.95
51926;BME280;37952;51.938;15.480;2022-11-20T06:35:20;99278.23;;;-2.44;68.97
51926;BME280;37952;51.938;15.480;2022-11-20T06:38:22;99276.29;;;-2.41;69.03
51926;BME280;37952;51.938;15.480;2022-11-20T06:41:23;99274.41;;;-2.43;68.96
51926;BME280;37952;51.938;15.480;2022-11-20T06:44:26;99271.59;;;-2.38;68.86
51926;BME280;37952;51.938;15.480;2022-11-20T06:47:28;99275.31;;;-2.34;68.53
51926;BME280;37952;51.938;15.480;2022-11-20T06:50:29;99276.38;;;-2.36;68.63
51926;BME280;37952;51.938;15.480;2022-11-20T06:53:31;99278.96;;;-2.35;68.56
51926;BME280;37952;51.938;15.480;2022-11-20T06:56:34;99279.99;;;-2.35;68.31
51926;BME280;37952;51.938;15.480;2022-11-20T06:59:36;99275.08;;;-2.41;68.49
51926;BME280;37952;51.938;15.480;2022-11-20T07:02:37;99273.05;;;-2.43;68.74
51926;BME280;37952;51.938;15.480;2022-11-20T07:05:39;99271.90;;;-2.36;68.56
51926;BME280;37952;51.938;15.480;2022-11-20T07:08:41;99268.06;;;-2.23;68.75
51926;BME280;37952;51.938;15.480;2022-11-20T07:11:42;99268.65;;;-2.27;68.53
51926;BME280;37952;51.938;15.480;2022-11-20T07:14:44;99263.08;;;-2.24;68.39
51926;BME280;37952;51.938;15.480;2022-11-20T07:17:51;99255.88;;;-2.17;68.27
51926;BME280;37952;51.938;15.480;2022-11-20T07:20:53;99261.16;;;-2.23;68.12
51926;BME280;37952;51.938;15.480;2022-11-20T07:23:54;99254.20;;;-2.30;68.32
51926;BME280;37952;51.938;15.480;2022-11-20T07:26:56;99252.61;;;-2.28;68.47
51926;BME280;37952;51.938;15.480;2022-11-20T07:29:57;99245.15;;;-2.26;68.24
51926;BME280;37952;51.938;15.480;2022-11-20T07:32:59;99245.29;;;-2.34;68.34
51926;BME280;37952;51.938;15.480;2022-11-20T07:36:01;99244.66;;;-2.38;68.26
51926;BME280;37952;51.938;15.480;2022-11-20T07:39:03;99244.80;;;-2.36;68.28
51926;BME280;37952;51.938;15.480;2022-11-20T07:42:06;99245.73;;;-2.30;68.57
51926;BME280;37952;51.938;15.480;2022-11-20T07:45:07;99251.52;;;-2.25;68.53
51926;BME280;37952;51.938;15.480;2022-11-20T07:48:09;99250.35;;;-2.27;68.38
51926;BME280;37952;51.938;15.480;2022-11-20T07:51:10;99255.09;;;-2.31;68.42
51926;BME280;37952;51.938;15.480;2022-11-20T07:54:12;99251.08;;;-2.29;68.14
51926;BME280;37952;51.938;15.480;2022-11-20T07:57:15;99249.69;;;-2.18;68.21
51926;BME280;37952;51.938;15.480;2022-11-20T08:00:16;99253.48;;;-2.18;67.91
51926;BME280;37952;51.938;15.480;2022-11-20T08:03:18;99241.95;;;-2.20;68.12
51926;BME280;37952;51.938;15.480;2022-11-20T08:06:25;99239.31;;;-2.17;67.94
51926;BME280;37952;51.938;15.480;2022-11-20T08:09:27;99222.98;;;-2.21;67.89
51926;BME280;37952;51.938;15.480;2022-11-20T08:12:30;99234.16;;;-2.09;67.94
51926;BME280;37952;51.938;15.480;2022-11-20T08:15:50;99237.45;;;-1.99;67.83
51926;BME280;37952;51.938;15.480;2022-11-20T08:18:54;99238.17;;;-1.91;67.75
51926;BME280;37952;51.938;15.480;2022-11-20T08:21:56;99235.86;;;-1.88;67.51
51926;BME280;37952;51.938;15.480;2022-11-20T08:24:57;99234.13;;;-1.87;67.70
51926;BME280;37952;51.938;15.480;2022-11-20T08:28:00;99229.42;;;-1.85;67.59
51926;BME280;37952;51.938;15.480;2022-11-20T08:31:12;99226.41;;;-1.72;67.66
51926;BME280;37952;51.938;15.480;2022-11-20T08:34:14;99226.19;;;-1.68;67.52
51926;BME280;37952;51.938;15.480;2022-11-20T08:37:20;99226.08;;;-1.64;67.15
51926;BME280;37952;51.938;15.480;2022-11-20T08:40:21;99226.19;;;-1.60;67.42
51926;BME280;37952;51.938;15.480;2022-11-20T08:43:23;99227.17;;;-1.57;67.02
51926;BME280;37952;51.938;15.480;2022-11-20T08:46:25;99231.73;;;-1.51;67.62
51926;BME280;37952;51.938;15.480;2022-11-20T08:49:27;99235.25;;;-1.46;67.52
51926;BME280;37952;51.938;15.480;2022-11-20T08:52:29;99224.54;;;-1.38;67.24
51926;BME280;37952;51.938;15.480;2022-11-20T08:55:31;99223.23;;;-1.32;67.12
51926;BME280;37952;51.938;15.480;2022-11-20T08:58:32;99219.10;;;-1.33;66.86
51926;BME280;37952;51.938;15.480;2022-11-20T09:01:54;99213.73;;;-1.41;66.66
51926;BME280;37952;51.938;15.480;2022-11-20T09:04:56;99212.92;;;-1.44;66.27
51926;BME280;37952;51.938;15.480;2022-11-20T09:07:58;99211.60;;;-1.39;66.52
51926;BME280;37952;51.938;15.480;2022-11-20T09:11:00;99211.52;;;-1.36;66.78
51926;BME280;37952;51.938;15.480;2022-11-20T09:14:01;99209.95;;;-1.34;66.77
51926;BME280;37952;51.938;15.480;2022-11-20T09:17:03;99203.73;;;-1.27;66.95
51926;BME280;37952;51.938;15.480;2022-11-20T09:20:05;99211.70;;;-1.26;66.45
51926;BME280;37952;51.938;15.480;2022-11-20T09:23:07;99210.25;;;-1.24;66.49
51926;BME280;37952;51.938;15.480;2022-11-20T09:26:11;99211.48;;;-1.25;66.37
51926;BME280;37952;51.938;15.480;2022-11-20T09:29:38;99202.63;;;-1.23;66.33
51926;BME280;37952;51.938;15.480;2022-11-20T09:32:39;99196.91;;;-1.30;66.28
51926;BME280;37952;51.938;15.480;2022-11-20T09:35:43;99206.20;;;-1.37;65.98
51926;BME280;37952;51.938;15.480;2022-11-20T09:38:48;99200.48;;;-1.36;66.19
51926;BME280;37952;51.938;15.480;2022-11-20T09:41:58;99195.20;;;-1.40;65.96
51926;BME280;37952;51.938;15.480;2022-11-20T09:51:53;99178.94;;;-1.23;66.36
51926;BME280;37952;51.938;15.480;2022-11-20T09:55:01;99183.70;;;-1.11;66.40
51926;BME280;37952;51.938;15.480;2022-11-20T09:58:06;99182.92;;;-1.07;66.15
51926;BME280;37952;51.938;15.480;2022-11-20T10:01:12;99180.05;;;-1.02;66.02
51926;BME280;37952;51.938;15.480;2022-11-20T10:04:20;99179.17;;;-1.02;65.55
51926;BME280;37952;51.938;15.480;2022-11-20T10:07:40;99173.57;;;-0.99;65.66
51926;BME280;37952;51.938;15.480;2022-11-20T10:10:46;99173.37;;;-0.97;65.64
51926;BME280;37952;51.938;15.480;2022-11-20T10:14:18;99170.39;;;-0.89;65.83
51926;BME280;37952;51.938;15.480;2022-11-20T10:17:41;99168.36;;;-0.82;65.46
51926;BME280;37952;51.938;15.480;2022-11-20T10:21:22;99164.62;;;-0.78;65.56
51926;BME280;37952;51.938;15.480;2022-11-20T10:31:10;99159.73;;;-0.54;65.37
51926;BME280;37952;51.938;15.480;2022-11-20T10:34:23;99160.02;;;-0.45;65.38
51926;BME280;37952;51.938;15.480;2022-11-20T10:37:30;99166.35;;;-0.42;65.30
51926;BME280;37952;51.938;15.480;2022-11-20T10:43:37;99160.72;;;-0.32;65.45
51926;BME280;37952;51.938;15.480;2022-11-20T10:46:43;99156.34;;;-0.31;64.90
51926;BME280;37952;51.938;15.480;2022-11-20T10:49:53;99155.04;;;-0.26;64.93
51926;BME280;37952;51.938;15.480;2022-11-20T10:53:05;99149.27;;;-0.24;65.27
51926;BME280;37952;51.938;15.480;2022-11-20T10:56:56;99143.13;;;-0.21;64.91
51926;BME280;37952;51.938;15.480;2022-11-20T11:02:44;99130.73;;;-0.19;65.12
51926;BME280;37952;51.938;15.480;2022-11-20T11:09:35;99137.45;;;-0.03;64.42
51926;BME280;37952;51.938;15.480;2022-11-20T11:12:44;99132.05;;;-0.02;64.73
51926;BME280;37952;51.938;15.480;2022-11-20T11:15:46;99133.83;;;0.03;64.00
51926;BME280;37952;51.938;15.480;2022-11-20T11:18:48;99133.86;;;0.08;64.39
51926;BME280;37952;51.938;15.480;2022-11-20T11:21:56;99128.90;;;0.12;64.34
51926;BME280;37952;51.938;15.480;2022-11-20T11:24:59;99128.52;;;0.19;64.30
51926;BME280;37952;51.938;15.480;2022-11-20T11:28:17;99124.14;;;0.27;64.75
51926;BME280;37952;51.938;15.480;2022-11-20T11:31:25;99117.98;;;0.30;63.78
51926;BME280;37952;51.938;15.480;2022-11-20T11:34:27;99115.94;;;0.35;64.59
51926;BME280;37952;51.938;15.480;2022-11-20T11:37:34;99109.59;;;0.39;64.31
51926;BME280;37952;51.938;15.480;2022-11-20T11:40:38;99108.27;;;0.37;63.00
51926;BME280;37952;51.938;15.480;2022-11-20T11:43:51;99108.44;;;0.36;62.83
51926;BME280;37952;51.938;15.480;2022-11-20T11:47:24;99112.70;;;0.33;62.43
51926;BME280;37952;51.938;15.480;2022-11-20T11:50:28;99108.83;;;0.35;63.11
51926;BME280;37952;51.938;15.480;2022-11-20T11:53:30;99112.17;;;0.33;62.23
51926;BME280;37952;51.938;15.480;2022-11-20T11:56:32;99114.80;;;0.26;62.34
51926;BME280;37952;51.938;15.480;2022-11-20T11:59:47;99111.29;;;0.22;61.59
51926;BME280;37952;51.938;15.480;2022-11-20T12:03:12;99107.90;;;0.13;61.61
51926;BME280;37952;51.938;15.480;2022-11-20T12:06:17;99105.41;;;0.09;61.66
51926;BME280;37952;51.938;15.480;2022-11-20T12:09:21;99104.23;;;0.01;61.55
51926;BME280;37952;51.938;15.480;2022-11-20T12:12:34;99099.81;;;-0.02;61.72
51926;BME280;37952;51.938;15.480;2022-11-20T12:15:40;99094.14;;;-0.03;61.55
51926;BME280;37952;51.938;15.480;2022-11-20T12:18:49;99087.92;;;-0.03;61.72
51926;BME280;37952;51.938;15.480;2022-11-20T12:25:35;99079.28;;;0.02;62.28
51926;BME280;37952;51.938;15.480;2022-11-20T12:28:40;99081.38;;;0.00;62.29
51926;BME280;37952;51.938;15.480;2022-11-20T12:32:05;99081.13;;;0.04;62.41
51926;BME280;37952;51.938;15.480;2022-11-20T12:41:58;99075.52;;;0.12;62.45
51926;BME280;37952;51.938;15.480;2022-11-20T12:55:50;99060.31;;;0.23;62.79
51926;BME280;37952;51.938;15.480;2022-11-20T13:02:46;99057.58;;;0.27;62.76
51926;BME280;37952;51.938;15.480;2022-11-20T13:06:12;99057.21;;;0.34;63.03
51926;BME280;37952;51.938;15.480;2022-11-20T13:09:16;99053.73;;;0.40;62.99
51926;BME280;37952;51.938;15.480;2022-11-20T13:12:36;99048.23;;;0.38;62.52
51926;BME280;37952;51.938;15.480;2022-11-20T13:16:02;99045.32;;;0.43;62.85
51926;BME280;37952;51.938;15.480;2022-11-20T13:19:11;99043.16;;;0.46;62.43
51926;BME280;37952;51.938;15.480;2022-11-20T13:22:24;99042.95;;;0.47;62.37
51926;BME280;37952;51.938;15.480;2022-11-20T13:25:30;99038.56;;;0.48;62.14
51926;BME280;37952;51.938;15.480;2022-11-20T13:28:31;99035.77;;;0.50;62.66
51926;BME280;37952;51.938;15.480;2022-11-20T13:31:41;99024.91;;;0.47;63.07
51926;BME280;37952;51.938;15.480;2022-11-20T13:34:54;99031.92;;;0.61;63.01
51926;BME280;37952;51.938;15.480;2022-11-20T13:38:14;99033.14;;;0.67;63.36
51926;BME280;37952;51.938;15.480;2022-11-20T13:41:34;99030.70;;;0.73;63.33
51926;BME280;37952;51.938;15.480;2022-11-20T13:44:45;99028.80;;;0.73;62.55
51926;BME280;37952;51.938;15.480;2022-11-20T13:47:48;99027.77;;;0.72;62.80
51926;BME280;37952;51.938;15.480;2022-11-20T13:54:39;99023.67;;;0.70;62.07
51926;BME280;37952;51.938;15.480;2022-11-20T14:01:17;99011.35;;;0.70;62.25
51926;BME280;37952;51.938;15.480;2022-11-20T14:04:29;99005.71;;;0.56;61.52
51926;BME280;37952;51.938;15.480;2022-11-20T14:07:51;99004.33;;;0.56;62.24
51926;BME280;37952;51.938;15.480;2022-11-20T14:14:33;99000.16;;;0.57;62.42
51926;BME280;37952;51.938;15.480;2022-11-20T14:17:37;99001.43;;;0.55;62.38
51926;BME280;37952;51.938;15.480;2022-11-20T14:20:40;99002.52;;;0.59;62.85
51926;BME280;37952;51.938;15.480;2022-11-20T14:23:47;99003.49;;;0.61;62.83
51926;BME280;37952;51.938;15.480;2022-11-20T14:26:50;99000.45;;;0.58;62.86
51926;BME280;37952;51.938;15.480;2022-11-20T14:29:52;98998.80;;;0.61;62.71
51926;BME280;37952;51.938;15.480;2022-11-20T14:32:56;99001.85;;;0.64;62.75
51926;BME280;37952;51.938;15.480;2022-11-20T14:35:59;98999.91;;;0.65;62.91
51926;BME280;37952;51.938;15.480;2022-11-20T14:39:00;99000.95;;;0.65;63.15
51926;BME280;37952;51.938;15.480;2022-11-20T14:42:16;98996.54;;;0.67;63.23
51926;BME280;37952;51.938;15.480;2022-11-20T14:45:19;98996.14;;;0.69;63.00
51926;BME280;37952;51.938;15.480;2022-11-20T14:48:25;98998.48;;;0.66;62.57
51926;BME280;37952;51.938;15.480;2022-11-20T14:51:35;99002.19;;;0.58;62.63
51926;BME280;37952;51.938;15.480;2022-11-20T14:55:07;99006.48;;;0.54;62.92
51926;BME280;37952;51.938;15.480;2022-11-20T14:58:24;99000.38;;;0.44;62.81
51926;BME280;37952;51.938;15.480;2022-11-20T15:01:27;98997.30;;;0.37;63.14
51926;BME280;37952;51.938;15.480;2022-11-20T15:04:29;99001.59;;;0.33;63.32
51926;BME280;37952;51.938;15.480;2022-11-20T15:07:34;99002.10;;;0.28;63.51
51926;BME280;37952;51.938;15.480;2022-11-20T15:10:37;99000.52;;;0.16;63.07
51926;BME280;37952;51.938;15.480;2022-11-20T15:13:39;99004.39;;;0.03;62.86
51926;BME280;37952;51.938;15.480;2022-11-20T15:16:41;99010.42;;;-0.01;63.04
51926;BME280;37952;51.938;15.480;2022-11-20T15:19:43;99009.47;;;0.01;63.21
51926;BME280;37952;51.938;15.480;2022-11-20T15:22:44;99005.75;;;-0.02;63.02
51926;BME280;37952;51.938;15.480;2022-11-20T15:25:47;99006.16;;;-0.04;63.46
51926;BME280;37952;51.938;15.480;2022-11-20T15:28:49;99006.91;;;-0.06;63.27
51926;BME280;37952;51.938;15.480;2022-11-20T15:31:51;99004.09;;;-0.17;63.41
51926;BME280;37952;51.938;15.480;2022-11-20T15:34:53;99006.52;;;-0.17;63.56
51926;BME280;37952;51.938;15.480;2022-11-20T15:37:55;99004.95;;;-0.17;63.41
51926;BME280;37952;51.938;15.480;2022-11-20T15:40:57;99007.37;;;-0.22;63.26
51926;BME280;37952;51.938;15.480;2022-11-20T15:43:58;99000.87;;;-0.25;63.30
51926;BME280;37952;51.938;15.480;2022-11-20T15:47:00;98996.83;;;-0.23;63.51
51926;BME280;37952;51.938;15.480;2022-11-20T15:50:02;98994.27;;;-0.24;63.29
51926;BME280;37952;51.938;15.480;2022-11-20T15:53:03;98996.24;;;-0.33;63.13
51926;BME280;37952;51.938;15.480;2022-11-20T15:56:07;98997.71;;;-0.36;63.87
51926;BME280;37952;51.938;15.480;2022-11-20T15:59:11;98989.77;;;-0.31;63.89
51926;BME280;37952;51.938;15.480;2022-11-20T16:02:15;98989.80;;;-0.32;63.62
51926;BME280;37952;51.938;15.480;2022-11-20T16:05:21;98986.77;;;-0.35;63.73
51926;BME280;37952;51.938;15.480;2022-11-20T16:08:25;98982.34;;;-0.37;63.70
51926;BME280;37952;51.938;15.480;2022-11-20T16:11:26;98981.41;;;-0.41;63.70
51926;BME280;37952;51.938;15.480;2022-11-20T16:14:28;98975.29;;;-0.45;63.87
51926;BME280;37952;51.938;15.480;2022-11-20T16:17:48;98974.12;;;-0.53;64.02
51926;BME280;37952;51.938;15.480;2022-11-20T16:20:54;98975.54;;;-0.48;64.05
51926;BME280;37952;51.938;15.480;2022-11-20T16:23:57;98980.80;;;-0.44;63.76
51926;BME280;37952;51.938;15.480;2022-11-20T16:26:59;98984.89;;;-0.42;64.08
51926;BME280;37952;51.938;15.480;2022-11-20T16:30:00;98980.98;;;-0.39;64.09
51926;BME280;37952;51.938;15.480;2022-11-20T16:33:03;98979.37;;;-0.36;64.22
51926;BME280;37952;51.938;15.480;2022-11-20T16:36:14;98980.49;;;-0.33;64.15
51926;BME280;37952;51.938;15.480;2022-11-20T16:39:16;98978.95;;;-0.34;64.11
51926;BME280;37952;51.938;15.480;2022-11-20T16:42:24;98975.59;;;-0.37;63.99
51926;BME280;37952;51.938;15.480;2022-11-20T16:45:26;98970.40;;;-0.50;63.92
51926;BME280;37952;51.938;15.480;2022-11-20T16:48:34;98976.40;;;-0.61;64.51
51926;BME280;37952;51.938;15.480;2022-11-20T16:51:39;98977.55;;;-0.65;64.63
51926;BME280;37952;51.938;15.480;2022-11-20T16:54:40;98983.64;;;-0.65;64.76
51926;BME280;37952;51.938;15.480;2022-11-20T16:57:42;98984.80;;;-0.70;64.56
51926;BME280;37952;51.938;15.480;2022-11-20T17:00:44;98983.27;;;-0.71;64.89
51926;BME280;37952;51.938;15.480;2022-11-20T17:03:55;98986.61;;;-0.74;64.64
51926;BME280;37952;51.938;15.480;2022-11-20T17:06:57;98985.52;;;-0.78;64.94
51926;BME280;37952;51.938;15.480;2022-11-20T17:09:59;98982.13;;;-0.87;65.18